sensor_id;sensor_type;location;lat;lon;timestamp;temperature;humidity
11965;DHT22;6042;41.326;19.826;2023-02-20T00:01:48;10.20;99.90
11965;DHT22;6042;41.326;19.826;2023-02-20T00:04:18;10.20;99.90
11965;DHT22;6042;41.326;19.826;2023-02-20T00:06:46;10.10;99.90
11965;DHT22;6042;41.326;19.826;2023-02-20T00:09:15;10.10;99.90
11965;DHT22;6042;41.326;19.826;2023-02-20T00:11:45;10.10;99.90
11965;DHT22;6042;41.326;19.826;2023-02-20T00:14:15;10.10;99.90
11965;DHT22;6042;41.326;19.826;2023-02-20T00:16:45;10.00;99.90
11965;DHT22;6042;41.326;19.826;2023-02-20T00:19:14;10.00;99.90
11965;DHT22;6042;41.326;19.826;2023-02-20T00:21:46;10.00;99.90
11965;DHT22;6042;41.326;19.826;2023-02-20T00:24:15;10.00;99.90
11965;DHT22;6042;41.326;19.826;2023-02-20T00:26:46;10.00;99.90
11965;DHT22;6042;41.326;19.826;2023-02-20T00:29:18;9.90;99.90
11965;DHT22;6042;41.326;19.826;2023-02-20T00:31:50;9.80;99.90
11965;DHT22;6042;41.326;19.826;2023-02-20T00:34:19;9.70;99.90
11965;DHT22;6042;41.326;19.826;2023-02-20T00:36:48;9.70;99.90
11965;DHT22;6042;41.326;19.826;2023-02-20T00:39:16;9.60;99.90
11965;DHT22;6042;41.326;19.826;2023-02-20T00:41:45;9.60;99.90
11965;DHT22;6042;41.326;19.826;2023-02-20T00:44:14;9.50;99.90
11965;DHT22;6042;41.326;19.826;2023-02-20T00:46:44;9.50;99.90
11965;DHT22;6042;41.326;19.826;2023-02-20T00:49:13;9.50;99.90
11965;DHT22;6042;41.326;19.826;2023-02-20T00:51:45;9.50;99.90
11965;DHT22;6042;41.326;19.826;2023-02-20T00:54:13;9.50;99.90
11965;DHT22;6042;41.326;19.826;2023-02-20T00:56:41;9.60;99.90
11965;DHT22;6042;41.326;19.826;2023-02-20T00:59:10;9.50;99.90
11965;DHT22;6042;41.326;19.826;2023-02-20T01:01:39;9.50;99.90
11965;DHT22;6042;41.326;19.826;2023-02-20T01:04:11;9.50;99.90
11965;DHT22;6042;41.326;19.826;2023-02-20T01:06:41;9.50;99.90
11965;DHT22;6042;41.326;19.826;2023-02-20T01:09:11;9.50;99.90
11965;DHT22;6042;41.326;19.826;2023-02-20T01:11:41;9.50;99.90
11965;DHT22;6042;41.326;19.826;2023-02-20T01:14:09;9.40;99.90
11965;DHT22;6042;41.326;19.826;2023-02-20T01:16:43;9.30;99.90
11965;DHT22;6042;41.326;19.826;2023-02-20T01:19:13;9.30;99.90
11965;DHT22;6042;41.326;19.826;2023-02-20T01:21:42;9.40;99.90
11965;DHT22;6042;41.326;19.826;2023-02-20T01:24:10;9.40;99.90
11965;DHT22;6042;41.326;19.826;2023-02-20T01:26:40;9.40;99.90
11965;DHT22;6042;41.326;19.826;2023-02-20T01:29:08;9.40;99.90
11965;DHT22;6042;41.326;19.826;2023-02-20T01:31:37;9.50;99.90
11965;DHT22;6042;41.326;19.826;2023-02-20T01:34:08;9.40;99.90
11965;DHT22;6042;41.326;19.826;2023-02-20T01:36:37;9.40;99.90
11965;DHT22;6042;41.326;19.826;2023-02-20T01:39:07;9.40;99.90
11965;DHT22;6042;41.326;19.826;2023-02-20T01:41:35;9.40;99.90
11965;DHT22;6042;41.326;19.826;2023-02-20T01:44:04;9.30;99.90
11965;DHT22;6042;41.326;19.826;2023-02-20T01:46:46;9.30;99.90
11965;DHT22;6042;41.326;19.826;2023-02-20T01:49:23;9.20;99.90
11965;DHT22;6042;41.326;19.826;2023-02-20T01:51:59;9.20;99.90
11965;DHT22;6042;41.326;19.826;2023-02-20T01:54:29;9.20;99.90
11965;DHT22;6042;41.326;19.826;2023-02-20T01:57:00;9.20;99.90
11965;DHT22;6042;41.326;19.826;2023-02-20T01:59:31;9.20;99.90
11965;DHT22;6042;41.326;19.826;2023-02-20T02:02:02;9.10;99.90
11965;DHT22;6042;41.326;19.826;2023-02-20T02:04:33;9.10;99.90
11965;DHT22;6042;41.326;19.826;2023-02-20T02:07:05;9.00;99.90
11965;DHT22;6042;41.326;19.826;2023-02-20T02:09:38;9.00;99.90
11965;DHT22;6042;41.326;19.826;2023-02-20T02:12:08;9.00;99.90
11965;DHT22;6042;41.326;19.826;2023-02-20T02:14:37;9.00;99.90
11965;DHT22;6042;41.326;19.826;2023-02-20T02:23:59;8.80;99.90
11965;DHT22;6042;41.326;19.826;2023-02-20T02:29:49;8.80;99.90
11965;DHT22;6042;41.326;19.826;2023-02-20T02:32:53;8.80;99.90
11965;DHT22;6042;41.326;19.826;2023-02-20T02:38:40;8.80;99.90
11965;DHT22;6042;41.326;19.826;2023-02-20T02:41:16;8.70;99.90
11965;DHT22;6042;41.326;19.826;2023-02-20T02:43:50;8.70;99.90
11965;DHT22;6042;41.326;19.826;2023-02-20T02:46:26;8.70;99.90
11965;DHT22;6042;41.326;19.826;2023-02-20T02:49:00;8.70;99.90
11965;DHT22;6042;41.326;19.826;2023-02-20T02:51:34;8.70;99.90
11965;DHT22;6042;41.326;19.826;2023-02-20T02:54:12;8.70;99.90
11965;DHT22;6042;41.326;19.826;2023-02-20T02:56:42;8.70;99.90
11965;DHT22;6042;41.326;19.826;2023-02-20T02:59:14;8.70;99.90
11965;DHT22;6042;41.326;19.826;2023-02-20T03:01:47;8.70;99.90
11965;DHT22;6042;41.326;19.826;2023-02-20T03:04:18;8.80;99.90
11965;DHT22;6042;41.326;19.826;2023-02-20T03:06:52;8.70;99.90
11965;DHT22;6042;41.326;19.826;2023-02-20T03:09:26;8.70;99.90
11965;DHT22;6042;41.326;19.826;2023-02-20T03:11:57;8.80;99.90
11965;DHT22;6042;41.326;19.826;2023-02-20T03:14:30;8.80;99.90
11965;DHT22;6042;41.326;19.826;2023-02-20T03:17:22;8.80;99.90
11965;DHT22;6042;41.326;19.826;2023-02-20T03:19:57;8.70;99.90
11965;DHT22;6042;41.326;19.826;2023-02-20T03:22:32;8.70;99.90
11965;DHT22;6042;41.326;19.826;2023-02-20T03:25:06;8.70;99.90
11965;DHT22;6042;41.326;19.826;2023-02-20T03:27:40;8.70;99.90
11965;DHT22;6042;41.326;19.826;2023-02-20T03:30:14;8.70;99.90
11965;DHT22;6042;41.326;19.826;2023-02-20T03:32:48;8.60;99.90
11965;DHT22;6042;41.326;19.826;2023-02-20T03:35:39;8.60;99.90
11965;DHT22;6042;41.326;19.826;2023-02-20T03:38:31;8.60;99.90
11965;DHT22;6042;41.326;19.826;2023-02-20T03:41:23;8.60;99.90
11965;DHT22;6042;41.326;19.826;2023-02-20T03:44:11;8.60;99.90
11965;DHT22;6042;41.326;19.826;2023-02-20T03:46:44;8.60;99.90
11965;DHT22;6042;41.326;19.826;2023-02-20T03:49:19;8.60;99.90
11965;DHT22;6042;41.326;19.826;2023-02-20T03:51:49;8.60;99.90
11965;DHT22;6042;41.326;19.826;2023-02-20T03:54:32;8.60;99.90
11965;DHT22;6042;41.326;19.826;2023-02-20T03:57:07;8.60;99.90
11965;DHT22;6042;41.326;19.826;2023-02-20T03:59:41;8.60;99.90
11965;DHT22;6042;41.326;19.826;2023-02-20T04:02:15;8.60;99.90
11965;DHT22;6042;41.326;19.826;2023-02-20T04:04:48;8.60;99.90
11965;DHT22;6042;41.326;19.826;2023-02-20T04:07:21;8.60;99.90
11965;DHT22;6042;41.326;19.826;2023-02-20T04:09:51;8.60;99.90
11965;DHT22;6042;41.326;19.826;2023-02-20T04:12:26;8.50;99.90
11965;DHT22;6042;41.326;19.826;2023-02-20T04:14:56;8.50;99.90
11965;DHT22;6042;41.326;19.826;2023-02-20T04:17:28;8.40;99.90
11965;DHT22;6042;41.326;19.826;2023-02-20T04:19:58;8.40;99.90
11965;DHT22;6042;41.326;19.826;2023-02-20T04:22:31;8.40;99.90
11965;DHT22;6042;41.326;19.826;2023-02-20T04:25:03;8.40;99.90
11965;DHT22;6042;41.326;19.826;2023-02-20T04:27:34;8.40;99.90
11965;DHT22;6042;41.326;19.826;2023-02-20T04:30:03;8.50;99.90
11965;DHT22;6042;41.326;19.826;2023-02-20T04:32:32;8.40;99.90
11965;DHT22;6042;41.326;19.826;2023-02-20T04:35:01;8.40;99.90
11965;DHT22;6042;41.326;19.826;2023-02-20T04:37:29;8.40;99.90
11965;DHT22;6042;41.326;19.826;2023-02-20T04:39:58;8.30;99.90
11965;DHT22;6042;41.326;19.826;2023-02-20T04:42:27;8.20;99.90
11965;DHT22;6042;41.326;19.826;2023-02-20T04:44:58;8.20;99.90
11965;DHT22;6042;41.326;19.826;2023-02-20T04:47:28;8.20;99.90
11965;DHT22;6042;41.326;19.826;2023-02-20T04:49:57;8.20;99.90
11965;DHT22;6042;41.326;19.826;2023-02-20T04:52:26;8.20;99.90
11965;DHT22;6042;41.326;19.826;2023-02-20T04:54:55;8.30;99.90
11965;DHT22;6042;41.326;19.826;2023-02-20T04:57:24;8.30;99.90
11965;DHT22;6042;41.326;19.826;2023-02-20T04:59:52;8.30;99.90
11965;DHT22;6042;41.326;19.826;2023-02-20T05:02:22;8.30;99.90
11965;DHT22;6042;41.326;19.826;2023-02-20T05:04:51;8.30;99.90
11965;DHT22;6042;41.326;19.826;2023-02-20T05:07:19;8.30;99.90
11965;DHT22;6042;41.326;19.826;2023-02-20T05:09:48;8.30;99.90
11965;DHT22;6042;41.326;19.826;2023-02-20T05:12:16;8.30;99.90
11965;DHT22;6042;41.326;19.826;2023-02-20T05:14:45;8.40;99.90
11965;DHT22;6042;41.326;19.826;2023-02-20T05:17:14;8.40;99.90
11965;DHT22;6042;41.326;19.826;2023-02-20T05:19:44;8.40;99.90
11965;DHT22;6042;41.326;19.826;2023-02-20T05:22:12;8.30;99.90
11965;DHT22;6042;41.326;19.826;2023-02-20T05:24:47;8.30;99.90
11965;DHT22;6042;41.326;19.826;2023-02-20T05:27:18;8.30;99.90
11965;DHT22;6042;41.326;19.826;2023-02-20T05:29:48;8.30;99.90
11965;DHT22;6042;41.326;19.826;2023-02-20T05:32:18;8.30;99.90
11965;DHT22;6042;41.326;19.826;2023-02-20T05:34:48;8.20;99.90
11965;DHT22;6042;41.326;19.826;2023-02-20T05:37:18;8.20;99.90
11965;DHT22;6042;41.326;19.826;2023-02-20T05:39:47;8.10;99.90
11965;DHT22;6042;41.326;19.826;2023-02-20T05:42:16;8.10;99.90
11965;DHT22;6042;41.326;19.826;2023-02-20T05:44:45;8.10;99.90
11965;DHT22;6042;41.326;19.826;2023-02-20T05:47:15;8.10;99.90
11965;DHT22;6042;41.326;19.826;2023-02-20T05:49:45;8.20;99.90
11965;DHT22;6042;41.326;19.826;2023-02-20T05:52:15;8.20;99.90
11965;DHT22;6042;41.326;19.826;2023-02-20T05:54:45;8.20;99.90
11965;DHT22;6042;41.326;19.826;2023-02-20T05:57:14;8.20;99.90
11965;DHT22;6042;41.326;19.826;2023-02-20T05:59:43;8.30;99.90
11965;DHT22;6042;41.326;19.826;2023-02-20T06:02:11;8.30;99.90
11965;DHT22;6042;41.326;19.826;2023-02-20T06:04:39;8.30;99.90
11965;DHT22;6042;41.326;19.826;2023-02-20T06:07:08;8.30;99.90
11965;DHT22;6042;41.326;19.826;2023-02-20T06:09:40;8.30;99.90
11965;DHT22;6042;41.326;19.826;2023-02-20T06:12:09;8.30;99.90
11965;DHT22;6042;41.326;19.826;2023-02-20T06:14:38;8.30;99.90
11965;DHT22;6042;41.326;19.826;2023-02-20T06:17:06;8.20;99.90
11965;DHT22;6042;41.326;19.826;2023-02-20T06:19:35;8.20;99.90
11965;DHT22;6042;41.326;19.826;2023-02-20T06:22:03;8.20;99.90
11965;DHT22;6042;41.326;19.826;2023-02-20T06:24:31;8.20;99.90
11965;DHT22;6042;41.326;19.826;2023-02-20T06:27:01;8.20;99.90
11965;DHT22;6042;41.326;19.826;2023-02-20T06:29:30;8.30;99.90
11965;DHT22;6042;41.326;19.826;2023-02-20T06:31:58;8.30;99.90
11965;DHT22;6042;41.326;19.826;2023-02-20T06:34:27;8.40;99.90
11965;DHT22;6042;41.326;19.826;2023-02-20T06:36:58;8.40;99.90
11965;DHT22;6042;41.326;19.826;2023-02-20T06:39:30;8.50;99.90
11965;DHT22;6042;41.326;19.826;2023-02-20T06:42:00;8.60;99.90
11965;DHT22;6042;41.326;19.826;2023-02-20T06:44:29;8.60;99.90
11965;DHT22;6042;41.326;19.826;2023-02-20T06:46:59;8.70;99.90
11965;DHT22;6042;41.326;19.826;2023-02-20T06:49:27;8.70;99.90
11965;DHT22;6042;41.326;19.826;2023-02-20T06:51:56;8.70;99.90
11965;DHT22;6042;41.326;19.826;2023-02-20T06:54:24;8.70;99.90
11965;DHT22;6042;41.326;19.826;2023-02-20T06:56:53;8.80;99.90
11965;DHT22;6042;41.326;19.826;2023-02-20T06:59:24;8.80;99.90
11965;DHT22;6042;41.326;19.826;2023-02-20T07:01:52;8.90;99.90
11965;DHT22;6042;41.326;19.826;2023-02-20T07:04:24;8.90;99.90
11965;DHT22;6042;41.326;19.826;2023-02-20T07:06:54;9.00;99.90
11965;DHT22;6042;41.326;19.826;2023-02-20T07:09:23;9.10;99.90
11965;DHT22;6042;41.326;19.826;2023-02-20T07:11:52;9.20;99.90
11965;DHT22;6042;41.326;19.826;2023-02-20T07:14:21;9.30;99.90
11965;DHT22;6042;41.326;19.826;2023-02-20T07:16:51;9.30;99.90
11965;DHT22;6042;41.326;19.826;2023-02-20T07:19:19;9.30;99.90
11965;DHT22;6042;41.326;19.826;2023-02-20T07:21:48;9.30;99.90
11965;DHT22;6042;41.326;19.826;2023-02-20T07:24:16;9.40;99.90
11965;DHT22;6042;41.326;19.826;2023-02-20T07:26:46;9.50;99.90
11965;DHT22;6042;41.326;19.826;2023-02-20T07:29:14;9.60;99.90
11965;DHT22;6042;41.326;19.826;2023-02-20T07:31:43;9.60;99.90
11965;DHT22;6042;41.326;19.826;2023-02-20T07:34:13;9.70;99.90
11965;DHT22;6042;41.326;19.826;2023-02-20T07:36:41;9.80;99.90
11965;DHT22;6042;41.326;19.826;2023-02-20T07:39:11;9.90;99.90
11965;DHT22;6042;41.326;19.826;2023-02-20T07:41:41;10.10;99.90
11965;DHT22;6042;41.326;19.826;2023-02-20T07:44:36;10.10;99.90
11965;DHT22;6042;41.326;19.826;2023-02-20T07:47:06;10.20;99.90
11965;DHT22;6042;41.326;19.826;2023-02-20T07:49:36;10.30;99.90
11965;DHT22;6042;41.326;19.826;2023-02-20T07:52:05;10.20;99.90
11965;DHT22;6042;41.326;19.826;2023-02-20T07:54:33;10.30;99.90
11965;DHT22;6042;41.326;19.826;2023-02-20T07:57:02;10.50;99.90
11965;DHT22;6042;41.326;19.826;2023-02-20T07:59:30;10.50;99.90
11965;DHT22;6042;41.326;19.826;2023-02-20T08:01:59;10.40;99.90
11965;DHT22;6042;41.326;19.826;2023-02-20T08:04:27;10.20;99.90
11965;DHT22;6042;41.326;19.826;2023-02-20T08:06:57;10.00;99.90
11965;DHT22;6042;41.326;19.826;2023-02-20T08:09:25;9.90;99.90
11965;DHT22;6042;41.326;19.826;2023-02-20T08:11:55;9.90;99.90
11965;DHT22;6042;41.326;19.826;2023-02-20T08:14:23;10.00;99.90
11965;DHT22;6042;41.326;19.826;2023-02-20T08:16:52;10.10;99.90
11965;DHT22;6042;41.326;19.826;2023-02-20T08:19:20;10.20;99.90
11965;DHT22;6042;41.326;19.826;2023-02-20T08:21:49;10.30;99.90
11965;DHT22;6042;41.326;19.826;2023-02-20T08:24:19;10.40;99.90
11965;DHT22;6042;41.326;19.826;2023-02-20T08:26:48;10.50;99.90
11965;DHT22;6042;41.326;19.826;2023-02-20T08:29:16;10.60;99.90
11965;DHT22;6042;41.326;19.826;2023-02-20T08:31:45;10.70;99.90
11965;DHT22;6042;41.326;19.826;2023-02-20T08:34:14;10.80;99.90
11965;DHT22;6042;41.326;19.826;2023-02-20T08:36:42;10.90;99.90
11965;DHT22;6042;41.326;19.826;2023-02-20T08:39:11;11.00;99.90
11965;DHT22;6042;41.326;19.826;2023-02-20T08:41:44;11.20;99.90
11965;DHT22;6042;41.326;19.826;2023-02-20T08:44:14;11.40;99.90
11965;DHT22;6042;41.326;19.826;2023-02-20T08:46:46;11.50;99.90
11965;DHT22;6042;41.326;19.826;2023-02-20T08:49:16;11.70;99.90
11965;DHT22;6042;41.326;19.826;2023-02-20T08:51:53;11.80;99.90
11965;DHT22;6042;41.326;19.826;2023-02-20T08:54:22;11.90;99.90
11965;DHT22;6042;41.326;19.826;2023-02-20T08:56:52;11.90;99.90
11965;DHT22;6042;41.326;19.826;2023-02-20T08:59:20;12.10;99.90
11965;DHT22;6042;41.326;19.826;2023-02-20T09:01:48;12.20;99.90
11965;DHT22;6042;41.326;19.826;2023-02-20T09:04:17;12.30;99.90
11965;DHT22;6042;41.326;19.826;2023-02-20T09:06:47;12.50;99.90
11965;DHT22;6042;41.326;19.826;2023-02-20T09:09:15;12.50;99.90
11965;DHT22;6042;41.326;19.826;2023-02-20T09:11:44;12.40;99.90
11965;DHT22;6042;41.326;19.826;2023-02-20T09:14:14;12.40;99.90
11965;DHT22;6042;41.326;19.826;2023-02-20T09:16:45;12.40;99.90
11965;DHT22;6042;41.326;19.826;2023-02-20T09:19:14;12.50;99.90
11965;DHT22;6042;41.326;19.826;2023-02-20T09:21:45;12.50;99.90
11965;DHT22;6042;41.326;19.826;2023-02-20T09:24:13;12.60;99.90
11965;DHT22;6042;41.326;19.826;2023-02-20T09:26:42;12.60;99.90
11965;DHT22;6042;41.326;19.826;2023-02-20T09:29:10;12.70;99.90
11965;DHT22;6042;41.326;19.826;2023-02-20T09:31:40;12.70;99.90
11965;DHT22;6042;41.326;19.826;2023-02-20T09:34:09;12.80;99.90
11965;DHT22;6042;41.326;19.826;2023-02-20T09:36:37;12.80;99.90
11965;DHT22;6042;41.326;19.826;2023-02-20T09:39:05;12.90;99.90
11965;DHT22;6042;41.326;19.826;2023-02-20T09:41:41;12.90;99.90
11965;DHT22;6042;41.326;19.826;2023-02-20T09:44:19;12.90;99.90
11965;DHT22;6042;41.326;19.826;2023-02-20T09:46:56;13.00;99.90
11965;DHT22;6042;41.326;19.826;2023-02-20T09:49:31;13.00;99.90
11965;DHT22;6042;41.326;19.826;2023-02-20T09:52:04;13.00;99.90
11965;DHT22;6042;41.326;19.826;2023-02-20T09:54:35;13.00;99.90
11965;DHT22;6042;41.326;19.826;2023-02-20T09:57:09;13.10;99.90
11965;DHT22;6042;41.326;19.826;2023-02-20T09:59:42;13.20;99.90
11965;DHT22;6042;41.326;19.826;2023-02-20T10:02:16;13.30;99.90
11965;DHT22;6042;41.326;19.826;2023-02-20T10:04:47;13.40;99.90
11965;DHT22;6042;41.326;19.826;2023-02-20T10:07:29;13.50;99.90
11965;DHT22;6042;41.326;19.826;2023-02-20T10:09:59;13.50;99.90
11965;DHT22;6042;41.326;19.826;2023-02-20T10:12:33;13.50;99.90
11965;DHT22;6042;41.326;19.826;2023-02-20T10:15:12;13.70;99.90
11965;DHT22;6042;41.326;19.826;2023-02-20T10:17:52;13.80;99.90
11965;DHT22;6042;41.326;19.826;2023-02-20T10:20:26;13.90;99.90
11965;DHT22;6042;41.326;19.826;2023-02-20T10:23:04;13.90;99.90
11965;DHT22;6042;41.326;19.826;2023-02-20T10:25:43;14.00;99.90
11965;DHT22;6042;41.326;19.826;2023-02-20T10:28:16;14.00;99.90
11965;DHT22;6042;41.326;19.826;2023-02-20T10:30:47;13.90;99.90
11965;DHT22;6042;41.326;19.826;2023-02-20T10:33:24;13.90;99.90
11965;DHT22;6042;41.326;19.826;2023-02-20T10:36:01;14.00;99.90
11965;DHT22;6042;41.326;19.826;2023-02-20T10:38:36;14.00;99.90
11965;DHT22;6042;41.326;19.826;2023-02-20T10:41:07;14.10;99.90
11965;DHT22;6042;41.326;19.826;2023-02-20T10:43:42;14.20;99.90
11965;DHT22;6042;41.326;19.826;2023-02-20T10:46:16;14.30;99.90
11965;DHT22;6042;41.326;19.826;2023-02-20T10:48:50;14.50;99.90
11965;DHT22;6042;41.326;19.826;2023-02-20T10:51:23;14.60;99.90
11965;DHT22;6042;41.326;19.826;2023-02-20T10:53:56;14.70;99.90
11965;DHT22;6042;41.326;19.826;2023-02-20T10:56:29;14.80;99.90
11965;DHT22;6042;41.326;19.826;2023-02-20T10:59:05;14.90;99.90
11965;DHT22;6042;41.326;19.826;2023-02-20T11:01:36;15.00;99.90
11965;DHT22;6042;41.326;19.826;2023-02-20T11:04:11;15.20;99.90
11965;DHT22;6042;41.326;19.826;2023-02-20T11:06:44;15.40;99.90
11965;DHT22;6042;41.326;19.826;2023-02-20T11:09:13;15.60;99.90
11965;DHT22;6042;41.326;19.826;2023-02-20T11:11:43;15.80;99.90
11965;DHT22;6042;41.326;19.826;2023-02-20T11:14:14;15.90;99.90
11965;DHT22;6042;41.326;19.826;2023-02-20T11:16:50;15.90;99.90
11965;DHT22;6042;41.326;19.826;2023-02-20T11:19:24;16.10;99.90
11965;DHT22;6042;41.326;19.826;2023-02-20T11:21:53;16.10;99.90
11965;DHT22;6042;41.326;19.826;2023-02-20T11:24:32;16.40;99.90
11965;DHT22;6042;41.326;19.826;2023-02-20T11:27:05;16.50;99.90
11965;DHT22;6042;41.326;19.826;2023-02-20T11:29:37;16.60;99.90
11965;DHT22;6042;41.326;19.826;2023-02-20T11:32:29;16.50;99.90
11965;DHT22;6042;41.326;19.826;2023-02-20T11:35:05;16.50;99.90
11965;DHT22;6042;41.326;19.826;2023-02-20T11:37:39;16.40;99.90
11965;DHT22;6042;41.326;19.826;2023-02-20T11:40:25;16.10;99.90
11965;DHT22;6042;41.326;19.826;2023-02-20T11:42:55;15.90;99.90
11965;DHT22;6042;41.326;19.826;2023-02-20T11:45:25;15.90;99.90
11965;DHT22;6042;41.326;19.826;2023-02-20T11:48:08;15.90;99.90
11965;DHT22;6042;41.326;19.826;2023-02-20T11:50:41;16.30;99.90
11965;DHT22;6042;41.326;19.826;2023-02-20T11:53:19;16.70;99.90
11965;DHT22;6042;41.326;19.826;2023-02-20T11:55:49;17.00;99.90
11965;DHT22;6042;41.326;19.826;2023-02-20T11:58:27;16.70;99.90
11965;DHT22;6042;41.326;19.826;2023-02-20T12:00:55;16.60;99.90
11965;DHT22;6042;41.326;19.826;2023-02-20T12:03:25;16.70;99.90
11965;DHT22;6042;41.326;19.826;2023-02-20T12:05:56;16.80;99.90
11965;DHT22;6042;41.326;19.826;2023-02-20T12:08:40;17.20;99.90
11965;DHT22;6042;41.326;19.826;2023-02-20T12:11:13;17.50;99.90
11965;DHT22;6042;41.326;19.826;2023-02-20T12:13:45;17.50;99.80
11965;DHT22;6042;41.326;19.826;2023-02-20T12:16:36;17.10;99.90
11965;DHT22;6042;41.326;19.826;2023-02-20T12:19:15;17.10;99.90
11965;DHT22;6042;41.326;19.826;2023-02-20T12:22:00;17.20;99.90
11965;DHT22;6042;41.326;19.826;2023-02-20T12:24:50;17.20;99.90
11965;DHT22;6042;41.326;19.826;2023-02-20T12:27:33;17.40;99.90
11965;DHT22;6042;41.326;19.826;2023-02-20T12:30:18;17.60;99.70
11965;DHT22;6042;41.326;19.826;2023-02-20T12:33:00;18.00;99.40
11965;DHT22;6042;41.326;19.826;2023-02-20T12:35:33;18.10;98.90
11965;DHT22;6042;41.326;19.826;2023-02-20T12:38:21;18.40;98.30
11965;DHT22;6042;41.326;19.826;2023-02-20T12:41:18;18.60;97.60
11965;DHT22;6042;41.326;19.826;2023-02-20T12:43:58;18.30;97.60
11965;DHT22;6042;41.326;19.826;2023-02-20T12:46:48;18.20;98.30
11965;DHT22;6042;41.326;19.826;2023-02-20T12:49:32;18.70;97.60
11965;DHT22;6042;41.326;19.826;2023-02-20T12:52:25;19.00;96.40
11965;DHT22;6042;41.326;19.826;2023-02-20T12:55:06;19.20;95.70
11965;DHT22;6042;41.326;19.826;2023-02-20T12:57:43;18.90;96.10
11965;DHT22;6042;41.326;19.826;2023-02-20T13:00:23;19.80;95.40
11965;DHT22;6042;41.326;19.826;2023-02-20T13:02:58;21.10;93.90
11965;DHT22;6042;41.326;19.826;2023-02-20T13:05:28;22.30;91.60
11965;DHT22;6042;41.326;19.826;2023-02-20T13:08:02;22.30;89.20
11965;DHT22;6042;41.326;19.826;2023-02-20T13:10:45;22.00;89.80
11965;DHT22;6042;41.326;19.826;2023-02-20T13:13:15;22.30;88.50
11965;DHT22;6042;41.326;19.826;2023-02-20T13:15:52;23.40;87.70
11965;DHT22;6042;41.326;19.826;2023-02-20T13:18:30;24.00;84.50
11965;DHT22;6042;41.326;19.826;2023-02-20T13:21:04;24.30;81.90
11965;DHT22;6042;41.326;19.826;2023-02-20T13:23:34;24.80;80.30
11965;DHT22;6042;41.326;19.826;2023-02-20T13:29:12;27.10;73.00
11965;DHT22;6042;41.326;19.826;2023-02-20T13:31:45;27.30;68.20
11965;DHT22;6042;41.326;19.826;2023-02-20T13:34:30;26.90;66.30
11965;DHT22;6042;41.326;19.826;2023-02-20T13:36:59;25.60;67.70
11965;DHT22;6042;41.326;19.826;2023-02-20T13:39:46;24.70;69.30
11965;DHT22;6042;41.326;19.826;2023-02-20T13:42:33;23.70;71.50
11965;DHT22;6042;41.326;19.826;2023-02-20T13:45:35;22.90;72.60
11965;DHT22;6042;41.326;19.826;2023-02-20T13:48:18;23.30;72.50
11965;DHT22;6042;41.326;19.826;2023-02-20T13:50:46;24.00;70.90
11965;DHT22;6042;41.326;19.826;2023-02-20T13:53:15;23.80;69.50
11965;DHT22;6042;41.326;19.826;2023-02-20T13:55:44;22.60;71.10
11965;DHT22;6042;41.326;19.826;2023-02-20T13:58:14;20.80;75.40
11965;DHT22;6042;41.326;19.826;2023-02-20T14:00:47;19.60;79.50
11965;DHT22;6042;41.326;19.826;2023-02-20T14:03:21;19.00;82.00
11965;DHT22;6042;41.326;19.826;2023-02-20T14:06:02;18.60;82.30
11965;DHT22;6042;41.326;19.826;2023-02-20T14:08:31;18.10;83.70
11965;DHT22;6042;41.326;19.826;2023-02-20T14:11:04;17.80;84.30
11965;DHT22;6042;41.326;19.826;2023-02-20T14:13:35;17.70;85.10
11965;DHT22;6042;41.326;19.826;2023-02-20T14:16:23;17.70;85.30
11965;DHT22;6042;41.326;19.826;2023-02-20T14:18:56;17.70;85.00
11965;DHT22;6042;41.326;19.826;2023-02-20T14:21:25;17.60;85.40
11965;DHT22;6042;41.326;19.826;2023-02-20T14:23:54;17.70;84.80
11965;DHT22;6042;41.326;19.826;2023-02-20T14:26:25;17.70;86.20
11965;DHT22;6042;41.326;19.826;2023-02-20T14:28:57;17.60;85.10
11965;DHT22;6042;41.326;19.826;2023-02-20T14:31:28;17.50;86.70
11965;DHT22;6042;41.326;19.826;2023-02-20T14:34:00;17.30;85.90
11965;DHT22;6042;41.326;19.826;2023-02-20T14:36:58;17.30;86.20
11965;DHT22;6042;41.326;19.826;2023-02-20T14:39:41;17.30;86.50
11965;DHT22;6042;41.326;19.826;2023-02-20T14:42:14;17.20;86.50
11965;DHT22;6042;41.326;19.826;2023-02-20T14:44:49;17.20;86.30
11965;DHT22;6042;41.326;19.826;2023-02-20T14:47:28;17.30;85.50
11965;DHT22;6042;41.326;19.826;2023-02-20T14:50:13;17.20;86.60
11965;DHT22;6042;41.326;19.826;2023-02-20T14:52:42;17.00;87.10
11965;DHT22;6042;41.326;19.826;2023-02-20T14:55:16;17.00;87.50
11965;DHT22;6042;41.326;19.826;2023-02-20T14:57:47;17.00;87.90
11965;DHT22;6042;41.326;19.826;2023-02-20T15:00:32;16.90;87.70
11965;DHT22;6042;41.326;19.826;2023-02-20T15:03:07;16.90;87.20
11965;DHT22;6042;41.326;19.826;2023-02-20T15:06:00;16.90;87.40
11965;DHT22;6042;41.326;19.826;2023-02-20T15:08:31;16.80;85.80
11965;DHT22;6042;41.326;19.826;2023-02-20T15:11:06;16.80;86.70
11965;DHT22;6042;41.326;19.826;2023-02-20T15:13:39;16.70;86.30
11965;DHT22;6042;41.326;19.826;2023-02-20T15:16:13;16.80;86.60
11965;DHT22;6042;41.326;19.826;2023-02-20T15:18:46;16.70;86.70
11965;DHT22;6042;41.326;19.826;2023-02-20T15:21:30;16.70;86.30
11965;DHT22;6042;41.326;19.826;2023-02-20T15:27:10;16.60;86.80
11965;DHT22;6042;41.326;19.826;2023-02-20T15:29:39;16.50;87.20
11965;DHT22;6042;41.326;19.826;2023-02-20T15:32:18;16.50;87.20
11965;DHT22;6042;41.326;19.826;2023-02-20T15:34:51;16.40;87.40
11965;DHT22;6042;41.326;19.826;2023-02-20T15:37:23;16.30;87.70
11965;DHT22;6042;41.326;19.826;2023-02-20T15:40:15;16.20;88.40
11965;DHT22;6042;41.326;19.826;2023-02-20T15:42:46;16.10;89.30
11965;DHT22;6042;41.326;19.826;2023-02-20T15:45:16;16.00;89.60
11965;DHT22;6042;41.326;19.826;2023-02-20T15:47:46;15.80;90.70
11965;DHT22;6042;41.326;19.826;2023-02-20T15:50:15;15.70;91.20
11965;DHT22;6042;41.326;19.826;2023-02-20T15:52:44;15.60;92.10
11965;DHT22;6042;41.326;19.826;2023-02-20T15:55:14;15.50;92.80
11965;DHT22;6042;41.326;19.826;2023-02-20T15:57:44;15.30;94.00
11965;DHT22;6042;41.326;19.826;2023-02-20T16:00:24;15.30;94.40
11965;DHT22;6042;41.326;19.826;2023-02-20T16:02:56;15.20;95.50
11965;DHT22;6042;41.326;19.826;2023-02-20T16:05:27;15.20;95.80
11965;DHT22;6042;41.326;19.826;2023-02-20T16:07:56;15.10;96.40
11965;DHT22;6042;41.326;19.826;2023-02-20T16:10:25;14.80;97.20
11965;DHT22;6042;41.326;19.826;2023-02-20T16:12:55;14.80;97.40
11965;DHT22;6042;41.326;19.826;2023-02-20T16:15:25;14.70;97.90
11965;DHT22;6042;41.326;19.826;2023-02-20T16:17:56;14.60;97.90
11965;DHT22;6042;41.326;19.826;2023-02-20T16:20:26;14.50;98.20
11965;DHT22;6042;41.326;19.826;2023-02-20T16:22:56;14.30;98.60
11965;DHT22;6042;41.326;19.826;2023-02-20T16:25:25;14.20;99.00
11965;DHT22;6042;41.326;19.826;2023-02-20T16:27:54;14.10;99.30
11965;DHT22;6042;41.326;19.826;2023-02-20T16:30:26;14.10;99.60
11965;DHT22;6042;41.326;19.826;2023-02-20T16:33:04;14.10;99.80